Latest Weather Observations for Ferny Creek

IDV60901

Issued at 3:51 pm EST Friday 29 July 2016 (issued every 10 minutes, with the page automatically refreshed every 10 minutes)

About weather observations | Map of Melbourne area stations | Latest observations for Melbourne area | Other Formats
Station Details ID: 086266 Name: FERNY CREEK Lat: -37.87 Lon: 145.35 Height: 512.9 m
Data from the previous 72 hours. | See also: Recent months at Ferny Creek
Date/Time
EST
Temp
°C
App
Temp
°C
Dew
Point
°C
Rel
Hum
%
Delta-T
°C
Wind Press
QNH
hPa
Press
MSL
hPa
Rain since
9am
mm
Dir  Spd
km/h
Gust
km/h
Spd
kts
Gust
kts
29/03:30pm 8.5 6.7 8.1 97 0.2 NW 7 19 4 10 1019.2 1020.0 1.6
29/03:00pm 8.3 6.5 7.9 97 0.2 NW 7 22 4 12 1019.2 1020.0 1.6
29/02:30pm 8.1 6.2 7.7 97 0.2 NW 7 19 4 10 1019.0 1019.8 1.6
29/02:00pm 7.9 6.2 7.5 97 0.2 WNW 6 13 3 7 1019.1 1019.9 1.4
29/01:30pm 7.8 5.8 7.2 96 0.3 NW 7 15 4 8 1019.5 1020.3 1.2
29/01:00pm 7.7 5.7 7.0 95 0.3 WNW 7 17 4 9 1019.8 1020.6 1.0
29/12:30pm 7.7 5.3 6.8 94 0.4 NW 9 17 5 9 1019.8 1020.6 0.6
29/12:00pm 8.1 5.2 6.4 89 0.8 NW 11 24 6 13 1020.1 1021.0 0.0
29/11:30am 8.0 5.5 6.5 90 0.7 NW 9 17 5 9 1020.3 1021.2 0.0
29/11:00am 8.1 5.5 6.2 88 0.9 NW 9 22 5 12 1020.4 1021.3 0.0
29/10:30am 7.8 5.6 6.3 90 0.7 WNW 7 20 4 11 1020.8 1021.7 0.0
29/10:00am 7.9 5.3 6.0 88 0.9 NW 9 24 5 13 1020.8 1021.7 0.0
29/09:30am 7.5 4.9 6.0 90 0.7 NW 9 22 5 12 1021.1 1021.9 0.0
29/09:00am 7.5 4.0 5.5 87 0.9 NW 13 26 7 14 1021.0 1021.8 0.0
29/08:30am 7.5 4.7 5.3 86 1.0 NW 9 19 5 10 1020.6 1021.5 0.0
29/08:00am 7.5 4.7 5.3 86 1.0 NW 9 20 5 11 1020.4 1021.3 0.0
29/07:30am 7.3 4.5 5.1 86 1.0 WNW 9 17 5 9 1020.3 1021.2 0.0
29/07:00am 7.3 4.5 5.1 86 1.0 NW 9 17 5 9 1020.3 1021.2 0.0
29/06:30am 7.3 4.5 5.0 85 1.0 NW 9 28 5 15 1020.2 1021.1 0.0
29/06:00am 7.2 4.4 5.0 86 1.0 NW 9 20 5 11 1020.2 1021.1 0.0
29/05:30am 7.1 4.2 4.9 86 1.0 NW 9 24 5 13 1020.4 1021.3 0.0
29/05:00am 7.1 4.2 4.9 86 1.0 NW 9 19 5 10 1020.3 1021.2 0.0
29/04:30am 7.0 4.5 5.0 87 0.9 NW 7 13 4 7 1020.3 1021.2 0.0
29/04:00am 6.9 4.1 5.1 88 0.8 NW 9 17 5 9 1020.3 1021.2 0.0
29/03:30am 6.8 4.4 5.1 89 0.8 NW 7 19 4 10 1020.5 1021.4 0.0
29/03:00am 6.8 4.3 5.0 88 0.8 NW 7 15 4 8 1020.7 1021.6 0.0
29/02:30am 7.0 4.7 5.0 87 0.9 NNW 6 17 3 9 1021.2 1022.0 0.0
29/02:00am 7.3 5.1 5.1 86 1.0 NNW 6 17 3 9 1021.0 1021.8 0.0
29/01:30am 7.3 4.9 5.1 86 1.0 NW 7 20 4 11 1021.3 1022.1 0.0
29/01:00am 7.3 5.1 5.1 86 1.0 NNW 6 15 3 8 1021.6 1022.5 0.0
29/12:30am 7.3 4.9 5.3 87 0.9 NW 7 17 4 9 1021.5 1022.3 0.0
29/12:00am 7.2 4.7 5.0 86 1.0 NW 7 15 4 8 1021.8 1022.7 0.0
 
Date/Time
EST
Temp
°C
App
Temp
°C
Dew
Point
°C
Rel
Hum
%
Delta-T
°C
Wind Press
QNH
hPa
Press
MSL
hPa
Rain since
9am
mm
Dir  Spd
km/h
Gust
km/h
Spd
kts
Gust
kts
28/11:30pm 7.4 5.1 5.0 85 1.1 NNW 6 13 3 7 1022.0 1022.9 0.0
28/11:00pm 7.4 4.9 5.0 85 1.1 NW 7 20 4 11 1022.4 1023.3 0.0
28/10:30pm 7.5 5.0 4.8 83 1.2 NW 7 15 4 8 1022.3 1023.2 0.0
28/10:00pm 7.6 5.1 4.6 81 1.3 NW 7 19 4 10 1022.3 1023.2 0.0
28/09:30pm 7.7 5.7 4.5 80 1.4 NNW 4 13 2 7 1022.6 1023.5 0.0
28/09:00pm 7.7 5.2 4.5 80 1.4 NW 7 15 4 8 1022.8 1023.7 0.0
28/08:30pm 7.6 5.3 4.6 81 1.4 W 6 9 3 5 1022.9 1023.8 0.0
28/08:00pm 7.6 4.7 4.6 81 1.3 NW 9 17 5 9 1022.9 1023.8 0.0
28/07:30pm 7.5 5.0 4.6 82 1.3 NW 7 13 4 7 1022.9 1023.8 0.0
28/07:00pm 7.7 5.2 4.7 81 1.4 NW 7 15 4 8 1023.1 1023.9 0.0
28/06:30pm 7.5 5.1 5.1 85 1.1 WNW 7 15 4 8 1022.7 1023.6 0.0
28/06:00pm 7.6 5.4 5.2 85 1.1 NNW 6 11 3 6 1022.5 1023.4 0.0
28/05:30pm 7.8 6.0 5.4 85 1.1 NW 4 13 2 7 1022.2 1023.1 0.0
28/05:00pm 8.2 6.0 5.3 82 1.3 NW 6 15 3 8 1022.1 1023.0 0.0
28/04:30pm 8.4 6.0 5.2 80 1.5 NW 7 15 4 8 1022.1 1023.0 0.0
28/04:00pm 8.5 5.8 5.4 81 1.4 NW 9 19 5 10 1022.1 1023.0 0.0
28/03:30pm 8.4 6.1 5.7 83 1.3 NW 7 15 4 8 1021.9 1022.8 0.0
28/03:00pm 8.3 5.9 5.4 82 1.3 NW 7 15 4 8 1021.9 1022.8 0.0
28/02:30pm 8.1 5.4 5.4 83 1.2 NW 9 20 5 11 1021.9 1022.8 0.0
28/02:00pm 8.3 5.9 5.2 81 1.4 NW 7 22 4 12 1021.9 1022.8 0.0
28/01:30pm 8.4 5.7 5.5 82 1.3 NW 9 17 5 9 1022.1 1023.0 0.0
28/01:00pm 8.5 4.9 4.9 78 1.6 NW 13 28 7 15 1022.2 1023.1 0.0
28/12:30pm 8.9 6.2 5.5 79 1.6 WNW 9 20 5 11 1022.3 1023.2 0.0
28/12:00pm 8.8 5.6 5.2 78 1.7 NW 11 22 6 12 1022.6 1023.5 0.0
28/11:30am 8.3 5.5 5.1 80 1.5 NW 9 24 5 13 1023.2 1024.0 0.0
28/11:00am 7.8 4.5 4.7 81 1.4 NW 11 20 6 11 1023.4 1024.3 0.0
28/10:30am 7.2 4.3 4.9 85 1.0 NW 9 19 5 10 1023.5 1024.4 0.0
28/10:00am 6.5 4.6 4.7 88 0.8 WNW 4 15 2 8 1023.4 1024.3 0.0
28/09:30am 6.0 3.6 4.3 89 0.8 NW 6 9 3 5 1023.3 1024.2 0.0
28/09:00am 5.7 3.1 4.0 89 0.7 NW 7 19 4 10 1023.1 1023.9 5.0
28/08:30am 5.3 2.8 4.0 91 0.6 NW 6 15 3 8 1022.9 1023.8 5.0
28/08:00am 5.1 3.0 3.8 91 0.6 WNW 4 11 2 6 1022.8 1023.7 5.0
28/07:30am 5.1 2.6 3.8 91 0.6 WNW 6 15 3 8 1022.4 1023.3 5.0
28/07:00am 5.1 3.0 3.9 92 0.5 WNW 4 13 2 7 1022.3 1023.2 5.0
28/06:30am 5.1 3.0 3.8 91 0.6 W 4 11 2 6 1022.0 1022.9 5.0
28/06:00am 5.0 2.5 3.7 91 0.6 WNW 6 17 3 9 1021.8 1022.7 5.0
28/05:30am 5.0 2.9 3.7 91 0.6 W 4 9 2 5 1021.5 1022.3 5.0
28/05:00am 5.0 2.9 3.7 91 0.6 WNW 4 7 2 4 1021.4 1022.2 5.0
28/04:30am 5.1 2.6 3.6 90 0.6 WNW 6 13 3 7 1021.3 1022.1 5.0
28/04:00am 5.3 2.8 3.8 90 0.6 WNW 6 9 3 5 1021.2 1022.0 5.0
28/03:30am 5.4 2.9 3.9 90 0.7 NW 6 11 3 6 1021.3 1022.1 5.0
28/03:00am 5.3 3.2 3.8 90 0.6 WNW 4 9 2 5 1021.4 1022.2 5.0
28/02:30am 5.3 3.1 3.6 89 0.7 WNW 4 11 2 6 1021.5 1022.3 5.0
28/02:00am 5.3 2.8 3.6 89 0.7 WNW 6 13 3 7 1021.4 1022.2 5.0
28/01:30am 5.2 3.0 3.5 89 0.7 WNW 4 9 2 5 1021.4 1022.2 5.0
28/01:00am 5.2 3.0 3.5 89 0.7 NW 4 11 2 6 1021.1 1021.9 5.0
28/12:30am 5.1 2.9 3.4 89 0.7 NW 4 9 2 5 1021.3 1022.1 5.0
28/12:00am 5.2 3.0 3.5 89 0.7 NW 4 9 2 5 1021.2 1022.0 5.0
 
Date/Time
EST
Temp
°C
App
Temp
°C
Dew
Point
°C
Rel
Hum
%
Delta-T
°C
Wind Press
QNH
hPa
Press
MSL
hPa
Rain since
9am
mm
Dir  Spd
km/h
Gust
km/h
Spd
kts
Gust
kts
27/11:30pm 5.2 2.4 3.4 88 0.8 NW 7 15 4 8 1021.1 1021.9 5.0
27/11:00pm 5.3 3.1 3.6 89 0.7 WNW 4 9 2 5 1021.1 1021.9 5.0
27/10:30pm 5.4 2.9 3.6 88 0.8 WNW 6 13 3 7 1021.0 1021.8 5.0
27/10:00pm 5.5 3.0 3.7 88 0.8 WNW 6 13 3 7 1020.8 1021.7 5.0
27/09:30pm 5.5 3.4 3.7 88 0.8 WNW 4 15 2 8 1020.8 1021.7 5.0
27/09:00pm 5.5 3.7 3.5 87 0.9 W 2 7 1 4 1021.2 1022.0 5.0
27/08:30pm 5.6 3.4 3.4 86 0.9 WNW 4 9 2 5 1021.1 1021.9 5.0
27/08:00pm 5.5 3.3 3.3 86 0.9 WNW 4 9 2 5 1020.7 1021.6 5.0
27/07:30pm 5.4 3.2 3.6 88 0.8 W 4 7 2 4 1020.4 1021.3 5.0
27/07:00pm 5.3 3.1 3.6 89 0.7 W 4 6 2 3 1019.9 1020.8 5.0
27/06:30pm 5.1 3.4 3.8 91 0.6 WSW 2 7 1 4 1019.2 1020.0 5.0
27/06:00pm 4.9 3.1 3.6 91 0.6 WNW 2 4 1 2 1018.5 1019.4 5.0
27/05:30pm 5.4 3.3 3.7 89 0.7 W 4 9 2 5 1018.4 1019.3 4.8
27/05:00pm 5.7 3.5 3.5 86 0.9 W 4 7 2 4 1018.0 1018.8 4.8
27/04:30pm 5.8 3.6 3.1 83 1.2 W 4 13 2 7 1017.8 1018.6 4.8
27/04:00pm 6.2 3.9 3.0 80 1.4 W 4 9 2 5 1017.4 1018.2 4.8
27/03:30pm 6.2 3.7 3.5 83 1.2 W 6 13 3 7 1017.0 1017.8 4.8
27/03:00pm 6.5 4.5 4.5 87 0.9 WSW 4 15 2 8 1016.3 1017.1 4.8
27/02:30pm 6.3 4.1 5.3 93 0.5 WSW 6 11 3 6 1015.7 1016.5 4.8
27/02:00pm 5.6 3.7 4.7 94 0.4 W 4 7 2 4 1015.7 1016.5 4.8
27/01:30pm 5.3 2.9 4.4 94 0.4 W 6 15 3 8 1015.4 1016.2 4.8
27/01:00pm 5.2 2.6 4.2 93 0.4 W 7 17 4 9 1015.2 1016.0 4.0
27/12:30pm 6.4 4.4 4.4 87 0.9 W 4 13 2 7 1014.8 1015.5 2.4
27/12:00pm 6.3 4.5 5.4 94 0.4 W 4 9 2 5 1014.6 1015.4 2.4
27/11:30am 5.8 3.3 4.9 94 0.4 WSW 7 17 4 9 1014.1 1014.9 2.4
27/11:00am 7.0 4.8 6.4 96 0.3 WSW 7 22 4 12 1014.0 1014.8 1.6
27/10:30am 5.8 3.0 5.2 96 0.3 WSW 9 26 5 14 1013.9 1014.7 1.4
27/10:00am 5.6 2.4 5.0 96 0.3 WSW 11 37 6 20 1013.3 1014.0 0.8
27/09:30am 5.9 2.8 5.5 97 0.2 WSW 11 30 6 16 1012.3 1013.1 0.4
27/09:00am 6.1 3.4 5.7 97 0.2 WSW 9 22 5 12 1011.5 1012.2 5.6
27/08:30am 5.8 4.0 5.4 97 0.2 WNW 4 13 2 7 1010.5 1011.3 3.8
27/08:00am 5.5 3.6 4.9 96 0.3 WNW 4 6 2 3 1009.9 1010.6 1.2
27/07:30am 5.3 3.7 4.7 96 0.3 WNW 2 4 1 2 1009.3 1010.0 1.0
27/07:00am 5.2 3.6 4.6 96 0.3 WNW 2 4 1 2 1008.6 1009.3 0.8
27/06:30am 5.1 3.1 4.5 96 0.3 NW 4 9 2 5 1007.9 1008.6 0.8
27/06:00am 5.0 2.6 4.3 95 0.3 WNW 6 11 3 6 1007.4 1008.1 0.4
27/05:30am 5.0 2.6 4.1 94 0.4 NW 6 11 3 6 1006.8 1007.5 0.0
27/05:00am 4.9 2.8 3.7 92 0.5 W 4 9 2 5 1006.3 1007.0 0.0
27/04:30am 5.0 2.3 3.5 90 0.6 WNW 7 15 4 8 1005.8 1006.5 0.0
27/04:00am 5.0 2.3 3.5 90 0.6 NW 7 15 4 8 1005.3 1006.0 0.0
27/03:30am 5.1 2.5 3.4 89 0.7 NW 6 13 3 7 1005.2 1005.9 0.0
27/03:00am 5.2 2.0 3.2 87 0.9 NNW 9 19 5 10 1004.9 1005.5 0.0
27/02:30am 5.2 2.4 3.1 86 0.9 NNW 7 17 4 9 1004.5 1005.1 0.0
27/02:00am 5.3 1.7 3.2 86 0.9 N 11 32 6 17 1004.6 1005.2 0.0
27/01:30am 5.3 1.7 2.8 84 1.1 N 11 26 6 14 1004.7 1005.3 0.0
27/01:00am 5.5 1.9 2.7 82 1.2 N 11 32 6 17 1004.7 1005.3 0.0
27/12:30am 5.5 2.2 2.5 81 1.3 N 9 20 5 11 1004.9 1005.5 0.0
27/12:00am 5.4 1.7 2.4 81 1.3 N 11 24 6 13 1005.0 1005.6 0.0
 
Date/Time
EST
Temp
°C
App
Temp
°C
Dew
Point
°C
Rel
Hum
%
Delta-T
°C
Wind Press
QNH
hPa
Press
MSL
hPa
Rain since
9am
mm
Dir  Spd
km/h
Gust
km/h
Spd
kts
Gust
kts
26/11:30pm 5.5 2.2 2.2 79 1.4 N 9 20 5 11 1005.2 1005.9 0.0
26/11:00pm 6.0 1.9 2.1 76 1.6 N 13 32 7 17 1005.4 1006.1 0.0
26/10:30pm 5.9 1.7 1.8 75 1.7 N 13 30 7 16 1005.6 1006.3 0.0
26/10:00pm 5.6 1.9 2.1 78 1.5 N 11 26 6 14 1006.1 1006.8 0.0
26/09:30pm 5.5 1.7 1.8 77 1.5 N 11 26 6 14 1005.9 1006.6 0.0
26/09:00pm 5.5 1.7 1.8 77 1.5 N 11 24 6 13 1006.0 1006.7 0.0
26/08:30pm 5.5 1.8 2.3 80 1.3 N 11 24 6 13 1006.7 1007.3 0.0
26/08:00pm 5.3 1.6 2.5 82 1.2 N 11 28 6 15 1006.7 1007.3 0.0
26/07:30pm 5.0 1.3 2.4 83 1.1 N 11 28 6 15 1007.0 1007.7 0.0
26/07:00pm 4.9 1.6 2.4 84 1.0 N 9 20 5 11 1007.5 1008.2 0.0
26/06:30pm 4.9 1.2 2.3 83 1.1 N 11 24 6 13 1007.5 1008.2 0.0
26/06:00pm 4.9 1.1 1.7 80 1.3 N 11 26 6 14 1007.5 1008.2 0.0
26/05:30pm 4.9 1.1 1.7 80 1.3 N 11 24 6 13 1007.5 1008.2 0.0
26/05:00pm 5.0 1.6 1.7 79 1.4 N 9 19 5 10 1007.8 1008.5 0.0
26/04:30pm 5.1 2.0 1.4 77 1.5 N 7 24 4 13 1007.8 1008.5 0.0
26/04:00pm 5.2 2.1 1.3 76 1.6 N 7 22 4 12 1008.2 1008.9 0.0

Latest Capital City Observations: Canberra | Sydney | Melbourne | Brisbane | Adelaide | Perth | Hobart | Darwin

Other Formats:

Comma delimited format used in spreadsheet applications
http://www.bom.gov.au/fwo/IDV60901/IDV60901.94872.axf

JavaScript Object Notation format (JSON) in row-major order
http://www.bom.gov.au/fwo/IDV60901/IDV60901.94872.json